Booneville, Arkansas
Current Conditions -  °F | °C
As of 11:53 AM on Thursday 29 Jan 2015 (Local Time) from KFSM Reporting Station
Clear Clear  
Wind Chill: 55°   Ceiling: Unl
Heat Index: 55°   Visibility: 10mi
Dew Point: 35°   Wind: 23mph
Humidity: 47%   Direction: 350°N
Pressure: 30.29"   Gusts: NA
Location:  35.14°N, 93.92°W
Report Text: KFSM 291753Z 35020KT 10SM CLR 13/02 A3029 RMK AO2 SLP256 T01280017 10139 20078 51035
Loading
Personal Weather Stations






























Interactive Weather Map New forecast layout! Learn more

10-Day Weather Forecast

Advertisements
Track Severe Weather on mobile